createdAt,value
2023-04-27T00:00:51.750Z,12.05
2023-04-27T00:01:55.236Z,12.05
2023-04-27T00:02:59.123Z,12.01
2023-04-27T00:04:04.067Z,12.05
2023-04-27T00:05:08.583Z,11.98
2023-04-27T00:06:13.621Z,11.67
2023-04-27T00:07:16.761Z,11.58
2023-04-27T00:08:20.360Z,11.62
2023-04-27T00:09:23.975Z,11.53
2023-04-27T00:10:26.393Z,11.59
2023-04-27T00:11:30.253Z,11.61
2023-04-27T00:12:34.064Z,11.58
2023-04-27T00:13:37.682Z,11.38
2023-04-27T00:14:41.705Z,11.39
2023-04-27T00:15:46.090Z,11.38
2023-04-27T00:16:51.392Z,11.46
2023-04-27T00:17:55.408Z,11.44
2023-04-27T00:18:58.960Z,11.36
2023-04-27T00:20:03.198Z,11.31
2023-04-27T00:21:06.620Z,11.31
2023-04-27T00:22:10.816Z,11.32
2023-04-27T00:23:15.434Z,11.36
2023-04-27T00:24:19.399Z,11.36
2023-04-27T00:25:23.746Z,11.40
2023-04-27T00:26:27.566Z,11.39
2023-04-27T00:27:30.857Z,11.34
2023-04-27T00:28:34.476Z,11.10
2023-04-27T00:29:37.875Z,11.16
2023-04-27T00:30:41.691Z,11.10
2023-04-27T00:31:45.346Z,11.08
2023-04-27T00:32:49.991Z,11.04
2023-04-27T00:33:56.543Z,11.06
2023-04-27T00:34:59.151Z,10.95
2023-04-27T00:36:02.977Z,10.86
2023-04-27T00:37:06.795Z,10.94
2023-04-27T00:38:10.299Z,11.00
2023-04-27T00:39:13.365Z,10.76
2023-04-27T00:40:16.049Z,10.81
2023-04-27T00:41:19.563Z,10.88
2023-04-27T00:42:24.637Z,10.97
2023-04-27T00:43:29.066Z,10.85
2023-04-27T00:44:31.444Z,10.91
2023-04-27T00:45:37.853Z,10.92
2023-04-27T00:46:41.628Z,10.95
2023-04-27T00:47:45.318Z,11.05
2023-04-27T00:48:49.523Z,10.88
2023-04-27T00:49:52.082Z,10.86
2023-04-27T00:50:56.822Z,10.88
2023-04-27T00:52:00.679Z,10.94
2023-04-27T00:53:05.204Z,10.99
2023-04-27T00:54:09.246Z,10.96
2023-04-27T00:55:16.570Z,10.93
2023-04-27T00:56:19.074Z,10.77
2023-04-27T00:57:23.921Z,10.63
2023-04-27T00:58:28.834Z,10.44
2023-04-27T00:59:32.987Z,10.46
2023-04-27T01:00:37.522Z,10.45
2023-04-27T01:01:40.325Z,10.50
2023-04-27T01:02:43.237Z,10.41
2023-04-27T01:03:48.841Z,10.32
2023-04-27T01:04:52.574Z,10.39
2023-04-27T01:05:57.407Z,10.37
2023-04-27T01:07:00.914Z,10.53
2023-04-27T01:08:04.526Z,10.60
2023-04-27T01:09:09.431Z,10.49
2023-04-27T01:10:13.876Z,10.32
2023-04-27T01:11:18.482Z,10.34
2023-04-27T01:12:22.091Z,10.39
2023-04-27T01:13:25.381Z,10.46
2023-04-27T01:14:28.684Z,10.49
2023-04-27T01:15:30.934Z,10.64
2023-04-27T01:16:34.039Z,10.62
2023-04-27T01:17:39.980Z,10.56
2023-04-27T01:18:43.226Z,10.46
2023-04-27T01:19:46.549Z,10.40
2023-04-27T01:20:50.446Z,10.38
2023-04-27T01:21:53.625Z,10.32
2023-04-27T01:22:58.610Z,10.24
2023-04-27T01:24:01.723Z,9.92
2023-04-27T01:25:10.023Z,9.95
2023-04-27T01:26:15.164Z,9.87
2023-04-27T01:27:18.577Z,9.98
2023-04-27T01:28:21.353Z,9.97
2023-04-27T01:29:24.456Z,10.00
2023-04-27T01:30:31.712Z,9.88
2023-04-27T01:31:35.578Z,9.87
2023-04-27T01:32:39.083Z,9.88
2023-04-27T01:33:42.568Z,9.94
2023-04-27T01:34:48.960Z,9.94
2023-04-27T01:35:53.419Z,9.94
2023-04-27T01:36:58.307Z,9.78
2023-04-27T01:38:03.341Z,9.62
2023-04-27T01:39:09.657Z,9.80
2023-04-27T01:40:13.839Z,9.87
2023-04-27T01:41:17.291Z,10.00
2023-04-27T01:42:21.347Z,10.04
2023-04-27T01:43:24.450Z,10.08
2023-04-27T01:44:31.893Z,10.15
2023-04-27T01:45:35.125Z,10.17
2023-04-27T01:46:42.801Z,10.19
2023-04-27T01:47:46.813Z,10.12
2023-04-27T01:48:50.080Z,10.11
2023-04-27T01:49:53.488Z,10.16
2023-04-27T01:50:56.892Z,10.13
2023-04-27T01:52:00.731Z,10.07
2023-04-27T01:53:04.218Z,10.12
2023-04-27T01:54:07.395Z,10.18
2023-04-27T01:55:12.735Z,10.23
2023-04-27T01:56:16.188Z,10.20
2023-04-27T01:57:21.463Z,10.21
2023-04-27T01:58:24.871Z,10.25
2023-04-27T01:59:29.325Z,10.18
2023-04-27T02:00:32.926Z,10.18
2023-04-27T02:01:37.114Z,10.20
2023-04-27T02:02:40.117Z,10.21
2023-04-27T02:03:51.078Z,10.18
2023-04-27T02:04:54.921Z,10.05
2023-04-27T02:05:59.252Z,10.07
2023-04-27T02:07:02.093Z,10.03
2023-04-27T02:08:09.580Z,10.04
2023-04-27T02:09:14.435Z,10.10
2023-04-27T02:10:18.470Z,10.15
2023-04-27T02:11:22.389Z,10.08
2023-04-27T02:12:29.991Z,10.04
2023-04-27T02:13:33.107Z,10.09
2023-04-27T02:14:35.934Z,9.99
2023-04-27T02:16:44.244Z,9.69
2023-04-27T02:17:47.445Z,9.77
2023-04-27T02:18:50.058Z,9.73
2023-04-27T02:19:52.526Z,9.68
2023-04-27T02:20:56.135Z,9.72
2023-04-27T02:21:59.947Z,9.69
2023-04-27T02:23:03.872Z,9.76
2023-04-27T02:24:08.421Z,9.75
2023-04-27T02:25:13.204Z,9.60
2023-04-27T02:26:19.108Z,9.48
2023-04-27T02:27:22.388Z,9.50
2023-04-27T02:28:27.197Z,9.54
2023-04-27T02:29:31.809Z,9.47
2023-04-27T02:30:35.463Z,9.42
2023-04-27T02:31:38.193Z,9.44
2023-04-27T02:32:44.710Z,9.58
2023-04-27T02:33:49.283Z,9.57
2023-04-27T02:34:53.285Z,9.67
2023-04-27T02:35:57.676Z,9.53
2023-04-27T02:37:01.356Z,9.50
2023-04-27T02:38:06.855Z,9.39
2023-04-27T02:39:13.534Z,9.49
2023-04-27T02:40:21.049Z,9.41
2023-04-27T02:41:24.708Z,9.43
2023-04-27T02:42:28.150Z,9.43
2023-04-27T02:43:39.083Z,9.55
2023-04-27T02:44:44.121Z,9.57
2023-04-27T02:45:49.463Z,9.51
2023-04-27T02:46:56.319Z,9.48
2023-04-27T02:47:59.964Z,9.48
2023-04-27T02:49:03.347Z,9.40
2023-04-27T02:50:08.153Z,9.48
2023-04-27T02:51:12.180Z,9.40
2023-04-27T02:52:15.584Z,9.27
2023-04-27T02:53:18.031Z,9.12
2023-04-27T02:54:21.021Z,9.14
2023-04-27T02:55:24.306Z,9.05
2023-04-27T02:56:27.513Z,9.10
2023-04-27T02:57:30.614Z,9.21
2023-04-27T02:58:37.737Z,9.32
2023-04-27T02:59:41.867Z,9.28
2023-04-27T03:00:46.172Z,9.26
2023-04-27T03:01:50.488Z,9.27
2023-04-27T03:02:53.081Z,9.29
2023-04-27T03:03:56.084Z,9.14
2023-04-27T03:04:59.917Z,9.27
2023-04-27T03:06:03.548Z,9.25
2023-04-27T03:07:07.374Z,9.17
2023-04-27T03:08:10.672Z,9.21
2023-04-27T03:09:14.404Z,9.15
2023-04-27T03:10:19.750Z,9.15
2023-04-27T03:11:23.261Z,9.04
2023-04-27T03:12:26.481Z,9.03
2023-04-27T03:13:30.172Z,9.00
2023-04-27T03:14:33.486Z,9.04
2023-04-27T03:15:36.127Z,9.08
2023-04-27T03:16:41.984Z,8.84
2023-04-27T03:17:44.214Z,9.00
2023-04-27T03:18:49.573Z,9.12
2023-04-27T03:19:53.389Z,9.07
2023-04-27T03:20:59.807Z,9.11
2023-04-27T03:22:03.541Z,8.91
2023-04-27T03:23:07.509Z,8.83
2023-04-27T03:24:11.242Z,8.88
2023-04-27T03:25:16.456Z,8.85
2023-04-27T03:26:20.786Z,8.92
2023-04-27T03:27:24.194Z,8.98
2023-04-27T03:28:26.654Z,9.01
2023-04-27T03:29:32.046Z,8.90
2023-04-27T03:30:35.751Z,8.91
2023-04-27T03:31:39.000Z,8.98
2023-04-27T03:32:42.692Z,8.98
2023-04-27T03:33:46.789Z,9.03
2023-04-27T03:34:51.688Z,9.12
2023-04-27T03:35:56.954Z,9.12
2023-04-27T03:37:00.217Z,9.05
2023-04-27T03:38:05.194Z,9.09
2023-04-27T03:39:08.699Z,9.03
2023-04-27T03:40:11.588Z,9.15
2023-04-27T03:41:19.558Z,9.12
2023-04-27T03:42:23.182Z,9.03
2023-04-27T03:43:26.888Z,8.88
2023-04-27T03:44:32.702Z,8.74
2023-04-27T03:45:36.045Z,8.68
2023-04-27T03:46:39.764Z,8.76
2023-04-27T03:47:42.429Z,8.81
2023-04-27T03:48:46.610Z,8.74
2023-04-27T03:49:53.729Z,8.73
2023-04-27T03:50:57.698Z,8.83
2023-04-27T03:52:01.307Z,8.79
2023-04-27T03:53:03.861Z,8.88
2023-04-27T03:54:07.057Z,8.88
2023-04-27T03:55:11.406Z,8.83
2023-04-27T03:56:16.383Z,8.76
2023-04-27T03:57:19.763Z,8.75
2023-04-27T03:58:23.445Z,8.74
2023-04-27T03:59:42.212Z,8.74
2023-04-27T04:00:47.081Z,8.72
2023-04-27T04:01:51.168Z,8.57
2023-04-27T04:02:57.809Z,8.48
2023-04-27T04:04:01.593Z,8.58
2023-04-27T04:05:05.469Z,8.72
2023-04-27T04:06:10.688Z,8.69
2023-04-27T04:07:13.994Z,8.67
2023-04-27T04:08:17.790Z,8.57
2023-04-27T04:09:23.714Z,8.51
2023-04-27T04:10:25.961Z,8.61
2023-04-27T04:11:30.516Z,8.79
2023-04-27T04:12:34.839Z,8.74
2023-04-27T04:13:38.669Z,8.81
2023-04-27T04:14:43.108Z,8.75
2023-04-27T04:15:48.708Z,8.78
2023-04-27T04:16:52.214Z,8.88
2023-04-27T04:17:57.535Z,8.89
2023-04-27T04:19:01.554Z,8.84
2023-04-27T04:20:06.801Z,8.85
2023-04-27T04:21:13.573Z,8.74
2023-04-27T04:22:17.153Z,8.77
2023-04-27T04:23:22.326Z,8.76
2023-04-27T04:24:28.348Z,8.76
2023-04-27T04:25:32.369Z,8.83
2023-04-27T04:26:36.395Z,8.95
2023-04-27T04:27:39.265Z,8.90
2023-04-27T04:28:41.693Z,9.10
2023-04-27T04:29:46.172Z,8.84
2023-04-27T04:30:50.414Z,8.73
2023-04-27T04:31:52.788Z,8.79
2023-04-27T04:32:56.425Z,8.95
2023-04-27T04:34:02.103Z,8.99
2023-04-27T04:35:07.782Z,8.94
2023-04-27T04:36:13.995Z,8.64
2023-04-27T04:37:20.509Z,8.58
2023-04-27T04:38:24.665Z,8.71
2023-04-27T04:39:34.005Z,8.82
2023-04-27T04:40:40.770Z,8.64
2023-04-27T04:41:44.267Z,8.56
2023-04-27T04:42:49.135Z,8.63
2023-04-27T04:43:53.052Z,8.67
2023-04-27T04:44:57.431Z,8.74
2023-04-27T04:46:01.424Z,8.75
2023-04-27T04:47:06.089Z,8.77
2023-04-27T04:48:08.663Z,8.74
2023-04-27T04:49:12.123Z,8.80
2023-04-27T04:50:16.925Z,8.76
2023-04-27T04:51:20.209Z,8.86
2023-04-27T04:52:23.414Z,8.69
2023-04-27T04:53:27.629Z,8.73
2023-04-27T04:54:31.853Z,8.71
2023-04-27T04:55:34.936Z,8.78
2023-04-27T04:56:38.440Z,8.71
2023-04-27T04:57:44.871Z,8.87
2023-04-27T04:58:49.038Z,8.94
2023-04-27T04:59:52.222Z,8.77
2023-04-27T05:00:54.563Z,8.80
2023-04-27T05:01:58.943Z,8.69
2023-04-27T05:03:01.874Z,8.71
2023-04-27T05:04:07.963Z,8.78
2023-04-27T05:05:11.716Z,8.76
2023-04-27T05:06:15.323Z,8.72
2023-04-27T05:07:20.876Z,8.79
2023-04-27T05:08:22.859Z,8.93
2023-04-27T05:09:26.255Z,8.90
2023-04-27T05:10:28.715Z,9.01
2023-04-27T05:11:32.014Z,8.98
2023-04-27T05:12:35.113Z,9.08
2023-04-27T05:13:42.449Z,8.80
2023-04-27T05:14:45.751Z,8.70
2023-04-27T05:15:48.963Z,8.72
2023-04-27T05:16:51.941Z,8.71
2023-04-27T05:17:56.183Z,8.62
2023-04-27T05:18:59.678Z,8.64
2023-04-27T05:20:06.032Z,8.70
2023-04-27T05:21:22.312Z,8.70
2023-04-27T05:22:25.050Z,8.73
2023-04-27T05:23:31.277Z,8.92
2023-04-27T05:24:34.128Z,8.79
2023-04-27T05:25:40.316Z,8.81
2023-04-27T05:26:43.213Z,8.87
2023-04-27T05:27:47.557Z,8.92
2023-04-27T05:28:51.790Z,8.73
2023-04-27T05:29:55.857Z,8.65
2023-04-27T05:30:59.253Z,8.64
2023-04-27T05:32:03.924Z,8.60
2023-04-27T05:33:07.582Z,8.82
2023-04-27T05:34:11.413Z,8.78
2023-04-27T05:35:16.086Z,8.75
2023-04-27T05:36:19.780Z,8.72
2023-04-27T05:37:23.080Z,8.73
2023-04-27T05:38:25.751Z,8.72
2023-04-27T05:39:29.148Z,8.73
2023-04-27T05:40:32.366Z,8.77
2023-04-27T05:41:38.794Z,8.88
2023-04-27T05:42:42.023Z,8.85
2023-04-27T05:43:47.875Z,8.89
2023-04-27T05:44:51.276Z,8.95
2023-04-27T05:45:54.714Z,8.93
2023-04-27T05:47:02.518Z,8.97
2023-04-27T05:48:08.173Z,9.11
2023-04-27T05:49:14.111Z,9.01
2023-04-27T05:50:17.881Z,8.87
2023-04-27T05:51:22.034Z,8.94
2023-04-27T05:52:28.253Z,8.86
2023-04-27T05:53:35.288Z,8.98
2023-04-27T05:54:38.566Z,8.95
2023-04-27T05:55:43.213Z,8.77
2023-04-27T05:56:47.591Z,8.85
2023-04-27T05:57:57.276Z,8.86
2023-04-27T05:58:55.216Z,8.74
2023-04-27T06:00:01.538Z,8.55
2023-04-27T06:01:05.617Z,8.45
2023-04-27T06:02:09.738Z,8.44
2023-04-27T06:03:12.207Z,8.45
2023-04-27T06:04:16.725Z,8.40
2023-04-27T06:05:20.239Z,8.37
2023-04-27T06:06:23.108Z,8.44
2023-04-27T06:07:26.286Z,8.23
2023-04-27T06:08:37.127Z,8.14
2023-04-27T06:09:41.341Z,8.21
2023-04-27T06:10:44.012Z,8.27
2023-04-27T06:11:49.460Z,8.11
2023-04-27T06:12:53.108Z,8.13
2023-04-27T06:13:55.616Z,8.09
2023-04-27T06:15:01.930Z,8.14
2023-04-27T06:16:06.695Z,8.07
2023-04-27T06:17:10.110Z,8.03
2023-04-27T06:18:16.604Z,8.14
2023-04-27T06:19:20.197Z,8.24
2023-04-27T06:20:23.910Z,8.19
2023-04-27T06:21:27.197Z,8.35
2023-04-27T06:22:30.189Z,8.38
2023-04-27T06:23:33.902Z,8.37
2023-04-27T06:24:38.659Z,8.50
2023-04-27T06:25:42.233Z,8.55
2023-04-27T06:26:45.629Z,8.59
2023-04-27T06:27:49.073Z,8.67
2023-04-27T06:28:52.365Z,8.79
2023-04-27T06:29:54.619Z,8.89
2023-04-27T06:31:01.062Z,8.87
2023-04-27T06:32:05.787Z,8.85
2023-04-27T06:33:08.721Z,8.81
2023-04-27T06:34:11.927Z,8.85
2023-04-27T06:35:15.764Z,8.84
2023-04-27T06:36:18.979Z,8.87
2023-04-27T06:37:22.383Z,9.01
2023-04-27T06:38:25.791Z,9.04
2023-04-27T06:39:34.934Z,9.06
2023-04-27T06:40:38.351Z,9.00
2023-04-27T06:41:42.884Z,8.99
2023-04-27T06:42:47.841Z,9.01
2023-04-27T06:43:52.750Z,9.02
2023-04-27T06:44:56.813Z,9.19
2023-04-27T06:46:01.212Z,9.26
2023-04-27T06:47:04.584Z,9.27
2023-04-27T06:48:07.896Z,9.07
2023-04-27T06:49:11.370Z,8.94
2023-04-27T06:50:14.960Z,8.59
2023-04-27T06:51:18.106Z,8.72
2023-04-27T06:52:21.274Z,8.86
2023-04-27T06:53:24.678Z,9.07
2023-04-27T06:54:27.561Z,9.31
2023-04-27T06:55:32.079Z,9.28
2023-04-27T06:56:35.388Z,9.45
2023-04-27T06:57:38.656Z,9.54
2023-04-27T06:58:43.131Z,9.74
2023-04-27T06:59:46.437Z,9.65
2023-04-27T07:00:48.574Z,9.74
2023-04-27T07:01:53.703Z,9.63
2023-04-27T07:02:58.414Z,9.73
2023-04-27T07:04:04.977Z,9.69
2023-04-27T07:05:09.394Z,9.68
2023-04-27T07:06:12.803Z,9.60
2023-04-27T07:07:16.117Z,9.66
2023-04-27T07:08:20.750Z,9.64
2023-04-27T07:09:28.090Z,9.45
2023-04-27T07:10:31.602Z,9.29
2023-04-27T07:11:34.945Z,9.21
2023-04-27T07:12:40.266Z,9.26
2023-04-27T07:13:44.953Z,9.08
2023-04-27T07:14:51.747Z,9.04
2023-04-27T07:16:01.093Z,9.15
2023-04-27T07:17:07.910Z,8.91
2023-04-27T07:18:12.870Z,9.01
2023-04-27T07:19:16.425Z,9.09
2023-04-27T07:20:22.504Z,9.27
2023-04-27T07:21:26.935Z,9.41
2023-04-27T07:22:29.590Z,9.45
2023-04-27T07:23:33.719Z,9.44
2023-04-27T07:24:37.170Z,9.43
2023-04-27T07:25:40.227Z,9.57
2023-04-27T07:26:42.582Z,9.59
2023-04-27T07:27:46.736Z,9.67
2023-04-27T07:28:51.711Z,9.51
2023-04-27T07:29:55.594Z,9.46
2023-04-27T07:30:58.778Z,9.42
2023-04-27T07:32:02.759Z,9.46
2023-04-27T07:33:06.768Z,9.28
2023-04-27T07:34:11.646Z,9.21
2023-04-27T07:35:16.145Z,9.35
2023-04-27T07:36:19.560Z,9.56
2023-04-27T07:37:28.704Z,9.74
2023-04-27T07:38:32.723Z,9.73
2023-04-27T07:39:36.774Z,9.68
2023-04-27T07:40:39.475Z,9.52
2023-04-27T07:41:42.703Z,9.46
2023-04-27T07:42:48.829Z,9.31
2023-04-27T07:43:53.282Z,9.43
2023-04-27T07:44:56.781Z,9.67
2023-04-27T07:46:00.272Z,9.71
2023-04-27T07:47:03.589Z,9.74
2023-04-27T07:48:06.967Z,9.64
2023-04-27T07:49:11.241Z,9.50
2023-04-27T07:50:17.094Z,9.32
2023-04-27T07:51:20.421Z,9.53
2023-04-27T07:52:23.912Z,9.52
2023-04-27T07:53:29.320Z,9.61
2023-04-27T07:54:31.965Z,9.70
2023-04-27T07:55:35.306Z,9.67
2023-04-27T07:56:40.884Z,9.57
2023-04-27T07:57:44.267Z,9.52
2023-04-27T07:58:47.254Z,9.48
2023-04-27T07:59:50.031Z,9.64
2023-04-27T08:00:52.374Z,9.65
2023-04-27T08:02:04.203Z,9.61
2023-04-27T08:03:00.736Z,9.51
2023-04-27T08:04:10.580Z,9.57
2023-04-27T08:05:18.258Z,9.58
2023-04-27T08:06:25.932Z,9.52
2023-04-27T08:07:30.236Z,9.66
2023-04-27T08:08:34.047Z,9.84
2023-04-27T08:09:38.186Z,9.93
2023-04-27T08:10:43.528Z,10.01
2023-04-27T08:11:49.888Z,10.23
2023-04-27T08:12:54.004Z,10.26
2023-04-27T08:13:58.472Z,10.55
2023-04-27T08:15:02.704Z,10.56
2023-04-27T08:16:07.619Z,10.46
2023-04-27T08:17:11.607Z,10.45
2023-04-27T08:18:14.858Z,10.61
2023-04-27T08:19:17.962Z,10.36
2023-04-27T08:20:21.998Z,9.69
2023-04-27T08:21:24.348Z,9.86
2023-04-27T08:22:30.082Z,10.18
2023-04-27T08:23:33.657Z,10.11
2023-04-27T08:24:38.703Z,10.07
2023-04-27T08:25:41.613Z,10.07
2023-04-27T08:26:44.496Z,10.14
2023-04-27T08:27:47.858Z,10.04
2023-04-27T08:28:58.195Z,9.77
2023-04-27T08:30:02.134Z,10.01
2023-04-27T08:31:04.708Z,10.09
2023-04-27T08:32:09.119Z,10.26
2023-04-27T08:33:12.891Z,9.92
2023-04-27T08:34:16.496Z,10.09
2023-04-27T08:35:19.733Z,10.51
2023-04-27T08:36:29.812Z,10.47
2023-04-27T08:37:35.444Z,10.06
2023-04-27T08:38:48.209Z,9.92
2023-04-27T08:39:52.038Z,9.86
2023-04-27T08:40:55.471Z,9.94
2023-04-27T08:41:58.260Z,10.20
2023-04-27T08:43:01.424Z,10.10
2023-04-27T08:44:05.627Z,10.29
2023-04-27T08:45:10.622Z,10.34
2023-04-27T08:46:14.786Z,10.49
2023-04-27T08:47:20.138Z,10.51
2023-04-27T08:48:21.761Z,10.40
2023-04-27T08:49:25.154Z,10.51
2023-04-27T08:50:30.108Z,10.31
2023-04-27T08:51:34.663Z,10.30
2023-04-27T08:52:39.423Z,10.27
2023-04-27T08:53:52.366Z,10.42
2023-04-27T08:54:56.154Z,10.25
2023-04-27T08:56:02.793Z,10.18
2023-04-27T08:57:12.909Z,10.14
2023-04-27T08:58:16.063Z,10.39
2023-04-27T08:59:19.288Z,10.68
2023-04-27T09:00:22.752Z,10.71
2023-04-27T09:01:29.153Z,10.74
2023-04-27T09:02:32.613Z,10.64
2023-04-27T09:03:36.358Z,10.63
2023-04-27T09:04:42.312Z,10.49
2023-04-27T09:06:03.695Z,10.50
2023-04-27T09:07:04.572Z,10.41
2023-04-27T09:08:07.829Z,10.16
2023-04-27T09:09:13.724Z,10.02
2023-04-27T09:10:17.709Z,10.17
2023-04-27T09:11:36.381Z,10.12
2023-04-27T09:12:41.304Z,10.09
2023-04-27T09:13:47.118Z,10.07
2023-04-27T09:15:00.056Z,10.33
2023-04-27T09:16:03.824Z,10.18
2023-04-27T09:17:07.151Z,9.94
2023-04-27T09:19:29.206Z,10.57
2023-04-27T09:20:32.804Z,10.63
2023-04-27T09:21:36.950Z,10.51
2023-04-27T09:22:45.852Z,10.61
2023-04-27T09:23:49.000Z,10.54
2023-04-27T09:24:53.468Z,10.43
2023-04-27T09:25:57.489Z,10.47
2023-04-27T09:27:01.300Z,10.58
2023-04-27T09:28:04.871Z,10.62
2023-04-27T09:29:11.798Z,10.55
2023-04-27T09:30:16.612Z,10.37
2023-04-27T09:31:20.591Z,10.06
2023-04-27T09:32:24.855Z,10.17
2023-04-27T09:33:29.379Z,10.18
2023-04-27T09:34:39.048Z,10.31
2023-04-27T09:35:42.882Z,10.46
2023-04-27T09:36:48.271Z,10.27
2023-04-27T09:37:56.339Z,10.38
2023-04-27T09:39:01.627Z,10.18
2023-04-27T09:40:04.527Z,10.14
2023-04-27T09:41:08.749Z,10.42
2023-04-27T09:42:11.824Z,10.62
2023-04-27T09:43:16.609Z,10.67
2023-04-27T09:44:21.043Z,10.47
2023-04-27T09:45:26.188Z,10.17
2023-04-27T09:46:33.585Z,10.02
2023-04-27T09:47:41.394Z,10.40
2023-04-27T09:48:46.967Z,10.59
2023-04-27T09:49:52.824Z,10.40
2023-04-27T09:50:57.185Z,10.52
2023-04-27T09:52:00.497Z,10.30
2023-04-27T09:53:06.616Z,10.12
2023-04-27T09:54:12.786Z,9.85
2023-04-27T09:55:17.806Z,9.93
2023-04-27T09:56:30.552Z,9.77
2023-04-27T09:57:41.740Z,9.92
2023-04-27T09:58:48.585Z,9.75
2023-04-27T10:00:09.707Z,9.69
2023-04-27T10:01:18.512Z,9.67
2023-04-27T10:02:35.086Z,9.65
2023-04-27T10:03:58.465Z,9.74
2023-04-27T10:05:20.176Z,9.73
2023-04-27T10:06:37.989Z,9.59
2023-04-27T10:07:41.163Z,9.98
2023-04-27T10:08:46.015Z,9.92
2023-04-27T10:09:52.459Z,9.72
2023-04-27T10:10:55.863Z,9.85
2023-04-27T10:12:00.105Z,9.97
2023-04-27T10:13:03.718Z,9.77
2023-04-27T10:14:09.329Z,9.71
2023-04-27T10:15:13.957Z,9.76
2023-04-27T10:16:17.799Z,9.92
2023-04-27T10:17:31.777Z,9.95
2023-04-27T10:18:35.246Z,10.08
2023-04-27T10:19:38.620Z,10.11
2023-04-27T10:20:42.154Z,10.12
2023-04-27T10:23:09.931Z,10.29
2023-04-27T10:24:13.217Z,10.08
2023-04-27T10:25:20.538Z,9.91
2023-04-27T10:26:24.825Z,9.70
2023-04-27T10:27:28.043Z,9.51
2023-04-27T10:28:34.190Z,9.38
2023-04-27T10:29:38.696Z,9.47
2023-04-27T10:30:45.148Z,9.56
2023-04-27T10:31:49.235Z,9.71
2023-04-27T10:32:54.027Z,9.86
2023-04-27T10:34:12.157Z,9.62
2023-04-27T10:35:15.540Z,9.56
2023-04-27T10:36:18.617Z,9.69
2023-04-27T10:37:22.762Z,9.48
2023-04-27T10:38:30.810Z,9.43
2023-04-27T10:39:48.610Z,9.73
2023-04-27T10:40:49.153Z,9.43
2023-04-27T10:41:58.068Z,9.42
2023-04-27T10:43:11.974Z,9.44
2023-04-27T10:44:17.472Z,9.52
2023-04-27T10:45:28.501Z,9.43
2023-04-27T10:46:32.038Z,9.62
2023-04-27T10:47:43.557Z,9.68
2023-04-27T10:48:48.169Z,9.42
2023-04-27T10:49:55.723Z,9.37
2023-04-27T10:51:01.630Z,9.52
2023-04-27T10:52:06.951Z,9.36
2023-04-27T10:53:10.533Z,9.25
2023-04-27T10:54:14.614Z,9.09
2023-04-27T10:55:22.754Z,9.05
2023-04-27T10:56:26.492Z,9.27
2023-04-27T10:57:29.570Z,9.28
2023-04-27T10:58:47.540Z,9.34
2023-04-27T10:59:50.890Z,9.57
2023-04-27T11:00:54.286Z,9.28
2023-04-27T11:01:57.968Z,9.24
2023-04-27T11:03:17.282Z,9.25
2023-04-27T11:04:21.951Z,9.13
2023-04-27T11:05:26.184Z,9.06
2023-04-27T11:06:32.154Z,9.11
2023-04-27T11:07:35.681Z,9.21
2023-04-27T11:08:44.133Z,9.14
2023-04-27T11:09:51.263Z,9.05
2023-04-27T11:10:56.526Z,8.98
2023-04-27T11:12:00.165Z,9.03
2023-04-27T11:13:11.368Z,9.14
2023-04-27T11:14:19.803Z,9.28
2023-04-27T11:15:23.020Z,9.16
2023-04-27T11:16:32.764Z,9.15
2023-04-27T11:17:39.650Z,9.05
2023-04-27T11:18:43.645Z,9.06
2023-04-27T11:19:49.510Z,9.31
2023-04-27T11:20:57.533Z,9.37
2023-04-27T11:23:28.974Z,9.49
2023-04-27T11:24:32.271Z,9.19
2023-04-27T11:25:35.915Z,9.07
2023-04-27T11:26:38.254Z,9.03
2023-04-27T11:27:42.366Z,8.94
2023-04-27T11:28:46.814Z,9.04
2023-04-27T11:29:50.353Z,8.96
2023-04-27T11:31:02.508Z,9.07
2023-04-27T11:32:07.537Z,9.16
2023-04-27T11:33:12.011Z,9.24
2023-04-27T11:34:20.380Z,9.14
2023-04-27T11:35:35.952Z,9.27
2023-04-27T11:36:41.533Z,8.96
2023-04-27T11:37:45.257Z,9.00
2023-04-27T11:38:49.524Z,8.97
2023-04-27T11:39:56.060Z,8.96
2023-04-27T11:41:00.371Z,8.91
2023-04-27T11:42:21.500Z,8.96
2023-04-27T11:43:26.689Z,8.94
2023-04-27T11:44:30.628Z,8.81
2023-04-27T11:45:37.870Z,8.84
2023-04-27T11:46:42.494Z,8.86
2023-04-27T11:47:49.257Z,8.73
2023-04-27T11:48:54.494Z,8.69
2023-04-27T11:50:00.930Z,8.76
2023-04-27T11:51:04.702Z,8.68
2023-04-27T11:52:08.843Z,8.77
2023-04-27T11:53:12.664Z,8.96
2023-04-27T11:54:16.514Z,8.94
2023-04-27T11:55:23.638Z,8.65
2023-04-27T11:56:29.230Z,8.77
2023-04-27T11:57:33.886Z,9.09
2023-04-27T11:58:38.859Z,9.24
2023-04-27T11:59:44.445Z,9.46
2023-04-27T12:00:49.531Z,9.46
2023-04-27T12:01:55.550Z,9.38
2023-04-27T12:03:00.912Z,9.36
2023-04-27T12:04:05.044Z,9.35
2023-04-27T12:05:10.395Z,9.20
2023-04-27T12:06:31.735Z,9.17
2023-04-27T12:07:21.310Z,9.14
2023-04-27T12:08:26.378Z,8.96
2023-04-27T12:09:29.901Z,8.84
2023-04-27T12:10:32.658Z,8.80
2023-04-27T12:11:36.057Z,8.76
2023-04-27T12:12:39.355Z,8.78
2023-04-27T12:13:43.695Z,8.95
2023-04-27T12:14:47.098Z,9.00
2023-04-27T12:15:51.016Z,9.16
2023-04-27T12:16:54.325Z,9.17
2023-04-27T12:17:57.873Z,9.21
2023-04-27T12:19:00.169Z,9.34
2023-04-27T12:20:03.667Z,9.03
2023-04-27T12:21:08.781Z,9.03
2023-04-27T12:22:12.663Z,9.11
2023-04-27T12:23:15.226Z,9.12
2023-04-27T12:24:18.733Z,9.10
2023-04-27T12:25:22.154Z,9.14
2023-04-27T12:26:28.267Z,9.34
2023-04-27T12:27:31.765Z,9.32
2023-04-27T12:28:36.419Z,9.36
2023-04-27T12:29:39.774Z,9.38
2023-04-27T12:30:42.672Z,9.53
2023-04-27T12:31:46.517Z,9.79
2023-04-27T12:32:50.812Z,10.03
2023-04-27T12:33:54.570Z,9.86
2023-04-27T12:35:01.233Z,9.82
2023-04-27T12:36:05.548Z,9.62
2023-04-27T12:37:08.924Z,9.67
2023-04-27T12:38:11.307Z,9.75
2023-04-27T12:39:19.916Z,9.67
2023-04-27T12:40:25.223Z,9.69
2023-04-27T12:41:28.710Z,9.49
2023-04-27T12:42:31.923Z,9.60
2023-04-27T12:43:37.958Z,9.57
2023-04-27T12:44:41.946Z,9.39
2023-04-27T12:45:44.972Z,9.25
2023-04-27T12:46:51.265Z,9.24
2023-04-27T12:48:03.410Z,9.20
2023-04-27T12:49:01.695Z,9.36
2023-04-27T12:50:07.118Z,9.04
2023-04-27T12:51:10.585Z,9.19
2023-04-27T12:52:14.297Z,9.32
2023-04-27T12:53:18.600Z,9.16
2023-04-27T12:54:22.364Z,9.25
2023-04-27T12:55:33.530Z,9.29
2023-04-27T12:56:30.792Z,9.32
2023-04-27T12:57:36.556Z,9.11
2023-04-27T12:58:42.337Z,9.11
2023-04-27T12:59:45.655Z,9.22
2023-04-27T13:00:49.040Z,9.11
2023-04-27T13:01:52.390Z,9.02
2023-04-27T13:02:57.096Z,8.93
2023-04-27T13:04:02.984Z,9.07
2023-04-27T13:05:07.786Z,9.21
2023-04-27T13:06:11.887Z,9.24
2023-04-27T13:07:15.066Z,9.33
2023-04-27T13:08:19.629Z,9.43
2023-04-27T13:09:22.963Z,9.27
2023-04-27T13:10:26.835Z,9.20
2023-04-27T13:11:29.723Z,9.21
2023-04-27T13:12:33.458Z,9.38
2023-04-27T13:13:36.647Z,9.65
2023-04-27T13:14:43.124Z,9.42
2023-04-27T13:15:46.932Z,9.53
2023-04-27T13:16:52.461Z,9.43
2023-04-27T13:17:57.210Z,9.52
2023-04-27T13:19:03.240Z,9.59
2023-04-27T13:20:08.248Z,9.35
2023-04-27T13:21:15.251Z,9.37
2023-04-27T13:22:19.998Z,9.48
2023-04-27T13:23:23.098Z,9.52
2023-04-27T13:24:26.822Z,9.37
2023-04-27T13:25:29.600Z,9.26
2023-04-27T13:26:33.206Z,9.29
2023-04-27T13:27:38.090Z,9.07
2023-04-27T13:28:41.779Z,9.16
2023-04-27T13:29:45.070Z,9.13
2023-04-27T13:30:49.406Z,9.00
2023-04-27T13:31:52.544Z,8.78
2023-04-27T13:33:04.376Z,8.92
2023-04-27T13:34:06.864Z,8.90
2023-04-27T13:35:10.547Z,9.02
2023-04-27T13:36:14.269Z,9.09
2023-04-27T13:37:17.775Z,9.14
2023-04-27T13:38:21.330Z,9.24
2023-04-27T13:39:25.913Z,9.13
2023-04-27T13:40:33.017Z,9.22
2023-04-27T13:41:36.691Z,9.14
2023-04-27T13:42:42.688Z,9.13
2023-04-27T13:43:47.454Z,9.09
2023-04-27T13:44:49.628Z,8.94
2023-04-27T13:45:54.602Z,8.88
2023-04-27T13:46:58.630Z,8.83
2023-04-27T13:48:00.966Z,8.92
2023-04-27T13:49:04.510Z,8.91
2023-04-27T13:50:09.945Z,8.81
2023-04-27T13:51:13.583Z,8.98
2023-04-27T13:52:16.706Z,9.02
2023-04-27T13:53:21.457Z,9.33
2023-04-27T13:54:24.863Z,9.38
2023-04-27T13:55:28.413Z,9.29
2023-04-27T13:56:32.046Z,9.36
2023-04-27T13:57:38.743Z,9.27
2023-04-27T13:58:43.697Z,9.38
2023-04-27T13:59:46.092Z,9.30
2023-04-27T14:00:49.421Z,9.47
2023-04-27T14:01:54.714Z,9.32
2023-04-27T14:02:58.474Z,9.16
2023-04-27T14:04:02.325Z,9.24
2023-04-27T14:05:06.822Z,9.42
2023-04-27T14:06:11.402Z,9.46
2023-04-27T14:07:16.168Z,9.58
2023-04-27T14:08:19.592Z,9.53
2023-04-27T14:09:26.094Z,9.36
2023-04-27T14:10:30.251Z,9.36
2023-04-27T14:11:42.329Z,9.33
2023-04-27T14:12:40.685Z,9.21
2023-04-27T14:13:44.297Z,9.07
2023-04-27T14:14:47.485Z,9.11
2023-04-27T14:15:50.782Z,9.21
2023-04-27T14:16:54.432Z,9.21
2023-04-27T14:17:58.034Z,9.30
2023-04-27T14:19:02.554Z,9.20
2023-04-27T14:20:08.410Z,9.10